sensor_id;sensor_type;location;lat;lon;timestamp;temperature;humidity
18805;DHT22;9530;48.930;9.526;2022-08-18T00:00:07;19.30;99.90
18805;DHT22;9530;48.930;9.526;2022-08-18T00:02:38;19.20;99.90
18805;DHT22;9530;48.930;9.526;2022-08-18T00:05:05;19.30;99.90
18805;DHT22;9530;48.930;9.526;2022-08-18T00:07:33;19.20;99.90
18805;DHT22;9530;48.930;9.526;2022-08-18T00:10:00;19.20;99.90
18805;DHT22;9530;48.930;9.526;2022-08-18T00:12:29;19.20;99.90
18805;DHT22;9530;48.930;9.526;2022-08-18T00:14:57;19.20;99.90
18805;DHT22;9530;48.930;9.526;2022-08-18T00:17:26;19.20;99.90
18805;DHT22;9530;48.930;9.526;2022-08-18T00:19:55;19.10;99.90
18805;DHT22;9530;48.930;9.526;2022-08-18T00:22:21;19.10;99.90
18805;DHT22;9530;48.930;9.526;2022-08-18T00:24:50;19.10;99.90
18805;DHT22;9530;48.930;9.526;2022-08-18T00:27:19;19.00;99.90
18805;DHT22;9530;48.930;9.526;2022-08-18T00:29:46;19.00;99.90
18805;DHT22;9530;48.930;9.526;2022-08-18T00:32:14;19.00;99.90
18805;DHT22;9530;48.930;9.526;2022-08-18T00:34:41;19.00;99.90
18805;DHT22;9530;48.930;9.526;2022-08-18T00:37:09;19.00;99.90
18805;DHT22;9530;48.930;9.526;2022-08-18T00:39:36;19.00;99.90
18805;DHT22;9530;48.930;9.526;2022-08-18T00:42:13;18.90;99.90
18805;DHT22;9530;48.930;9.526;2022-08-18T00:44:40;18.90;99.90
18805;DHT22;9530;48.930;9.526;2022-08-18T00:47:06;18.90;99.90
18805;DHT22;9530;48.930;9.526;2022-08-18T00:49:34;18.90;99.90
18805;DHT22;9530;48.930;9.526;2022-08-18T00:52:01;18.90;99.90
18805;DHT22;9530;48.930;9.526;2022-08-18T00:54:31;18.90;99.90
18805;DHT22;9530;48.930;9.526;2022-08-18T00:57:02;18.80;99.90
18805;DHT22;9530;48.930;9.526;2022-08-18T00:59:34;18.80;99.90
18805;DHT22;9530;48.930;9.526;2022-08-18T01:02:05;18.80;99.90
18805;DHT22;9530;48.930;9.526;2022-08-18T01:04:35;18.80;99.90
18805;DHT22;9530;48.930;9.526;2022-08-18T01:07:06;18.80;99.90
18805;DHT22;9530;48.930;9.526;2022-08-18T01:09:37;18.80;99.90
18805;DHT22;9530;48.930;9.526;2022-08-18T01:12:04;18.90;99.90
18805;DHT22;9530;48.930;9.526;2022-08-18T01:14:31;18.90;99.90
18805;DHT22;9530;48.930;9.526;2022-08-18T01:16:57;19.00;99.90
18805;DHT22;9530;48.930;9.526;2022-08-18T01:19:42;19.00;99.90
18805;DHT22;9530;48.930;9.526;2022-08-18T01:22:28;18.90;99.90
18805;DHT22;9530;48.930;9.526;2022-08-18T01:25:00;19.00;99.90
18805;DHT22;9530;48.930;9.526;2022-08-18T01:27:45;19.00;99.90
18805;DHT22;9530;48.930;9.526;2022-08-18T01:30:15;19.00;99.90
18805;DHT22;9530;48.930;9.526;2022-08-18T01:32:43;19.00;99.90
18805;DHT22;9530;48.930;9.526;2022-08-18T01:35:11;19.00;99.90
18805;DHT22;9530;48.930;9.526;2022-08-18T01:37:38;18.90;99.90
18805;DHT22;9530;48.930;9.526;2022-08-18T01:40:10;18.90;99.90
18805;DHT22;9530;48.930;9.526;2022-08-18T01:42:38;18.90;99.90
18805;DHT22;9530;48.930;9.526;2022-08-18T01:45:09;18.90;99.90
18805;DHT22;9530;48.930;9.526;2022-08-18T01:47:36;18.90;99.90
18805;DHT22;9530;48.930;9.526;2022-08-18T01:50:06;18.80;99.90
18805;DHT22;9530;48.930;9.526;2022-08-18T01:52:34;18.80;99.90
18805;DHT22;9530;48.930;9.526;2022-08-18T01:55:02;18.80;99.90
18805;DHT22;9530;48.930;9.526;2022-08-18T01:57:30;18.80;99.90
18805;DHT22;9530;48.930;9.526;2022-08-18T01:59:57;18.70;99.90
18805;DHT22;9530;48.930;9.526;2022-08-18T02:02:27;18.70;99.90
18805;DHT22;9530;48.930;9.526;2022-08-18T02:05:01;18.70;99.90
18805;DHT22;9530;48.930;9.526;2022-08-18T02:07:28;18.70;99.90
18805;DHT22;9530;48.930;9.526;2022-08-18T02:09:54;18.70;99.90
18805;DHT22;9530;48.930;9.526;2022-08-18T02:12:21;18.70;99.90
18805;DHT22;9530;48.930;9.526;2022-08-18T02:14:49;18.60;99.90
18805;DHT22;9530;48.930;9.526;2022-08-18T02:17:18;18.60;99.90
18805;DHT22;9530;48.930;9.526;2022-08-18T02:19:46;18.60;99.90
18805;DHT22;9530;48.930;9.526;2022-08-18T02:22:14;18.60;99.90
18805;DHT22;9530;48.930;9.526;2022-08-18T02:24:42;18.60;99.90
18805;DHT22;9530;48.930;9.526;2022-08-18T02:27:10;18.60;99.90
18805;DHT22;9530;48.930;9.526;2022-08-18T02:29:37;18.70;99.90
18805;DHT22;9530;48.930;9.526;2022-08-18T02:32:07;18.60;99.90
18805;DHT22;9530;48.930;9.526;2022-08-18T02:34:33;18.60;99.90
18805;DHT22;9530;48.930;9.526;2022-08-18T02:37:01;18.60;99.90
18805;DHT22;9530;48.930;9.526;2022-08-18T02:39:28;18.60;99.90
18805;DHT22;9530;48.930;9.526;2022-08-18T02:41:55;18.60;99.90
18805;DHT22;9530;48.930;9.526;2022-08-18T02:44:22;18.60;99.90
18805;DHT22;9530;48.930;9.526;2022-08-18T02:46:51;18.60;99.90
18805;DHT22;9530;48.930;9.526;2022-08-18T02:49:19;18.60;99.90
18805;DHT22;9530;48.930;9.526;2022-08-18T02:51:46;18.50;99.90
18805;DHT22;9530;48.930;9.526;2022-08-18T02:54:14;18.60;99.90
18805;DHT22;9530;48.930;9.526;2022-08-18T02:56:40;18.60;99.90
18805;DHT22;9530;48.930;9.526;2022-08-18T02:59:11;18.50;99.90
18805;DHT22;9530;48.930;9.526;2022-08-18T03:01:41;18.50;99.90
18805;DHT22;9530;48.930;9.526;2022-08-18T03:04:10;18.60;99.90
18805;DHT22;9530;48.930;9.526;2022-08-18T03:06:40;18.60;99.90
18805;DHT22;9530;48.930;9.526;2022-08-18T03:09:08;18.50;99.90
18805;DHT22;9530;48.930;9.526;2022-08-18T03:11:36;18.50;99.90
18805;DHT22;9530;48.930;9.526;2022-08-18T03:14:04;18.60;99.90
18805;DHT22;9530;48.930;9.526;2022-08-18T03:16:31;18.60;99.90
18805;DHT22;9530;48.930;9.526;2022-08-18T03:18:59;18.50;99.90
18805;DHT22;9530;48.930;9.526;2022-08-18T03:21:28;18.50;99.90
18805;DHT22;9530;48.930;9.526;2022-08-18T03:23:57;18.50;99.90
18805;DHT22;9530;48.930;9.526;2022-08-18T03:26:24;18.50;99.90
18805;DHT22;9530;48.930;9.526;2022-08-18T03:28:52;18.50;99.90
18805;DHT22;9530;48.930;9.526;2022-08-18T03:31:21;18.50;99.90
18805;DHT22;9530;48.930;9.526;2022-08-18T03:33:49;18.40;99.90
18805;DHT22;9530;48.930;9.526;2022-08-18T03:36:18;18.50;99.90
18805;DHT22;9530;48.930;9.526;2022-08-18T03:38:45;18.40;99.90
18805;DHT22;9530;48.930;9.526;2022-08-18T03:41:16;18.50;99.90
18805;DHT22;9530;48.930;9.526;2022-08-18T03:43:43;18.40;99.90
18805;DHT22;9530;48.930;9.526;2022-08-18T03:46:13;18.40;99.90
18805;DHT22;9530;48.930;9.526;2022-08-18T03:48:41;18.40;99.90
18805;DHT22;9530;48.930;9.526;2022-08-18T03:51:13;18.40;99.90
18805;DHT22;9530;48.930;9.526;2022-08-18T03:53:40;18.40;99.90
18805;DHT22;9530;48.930;9.526;2022-08-18T03:56:09;18.40;99.90
18805;DHT22;9530;48.930;9.526;2022-08-18T03:58:41;18.40;99.90
18805;DHT22;9530;48.930;9.526;2022-08-18T04:01:10;18.40;99.90
18805;DHT22;9530;48.930;9.526;2022-08-18T04:03:38;18.40;99.90
18805;DHT22;9530;48.930;9.526;2022-08-18T04:06:05;18.40;99.90
18805;DHT22;9530;48.930;9.526;2022-08-18T04:08:31;18.40;99.90
18805;DHT22;9530;48.930;9.526;2022-08-18T04:10:58;18.40;99.90
18805;DHT22;9530;48.930;9.526;2022-08-18T04:13:25;18.40;99.90
18805;DHT22;9530;48.930;9.526;2022-08-18T04:15:53;18.40;99.90
18805;DHT22;9530;48.930;9.526;2022-08-18T04:18:19;18.40;99.90
18805;DHT22;9530;48.930;9.526;2022-08-18T04:20:46;18.50;99.90
18805;DHT22;9530;48.930;9.526;2022-08-18T04:23:13;18.40;99.90
18805;DHT22;9530;48.930;9.526;2022-08-18T04:25:40;18.40;99.90
18805;DHT22;9530;48.930;9.526;2022-08-18T04:28:07;18.50;99.90
18805;DHT22;9530;48.930;9.526;2022-08-18T04:30:34;18.50;99.90
18805;DHT22;9530;48.930;9.526;2022-08-18T04:33:03;18.50;99.90
18805;DHT22;9530;48.930;9.526;2022-08-18T04:35:30;18.50;99.90
18805;DHT22;9530;48.930;9.526;2022-08-18T04:37:58;18.50;99.90
18805;DHT22;9530;48.930;9.526;2022-08-18T04:40:24;18.50;99.90
18805;DHT22;9530;48.930;9.526;2022-08-18T04:42:51;18.50;99.90
18805;DHT22;9530;48.930;9.526;2022-08-18T04:45:18;18.60;99.90
18805;DHT22;9530;48.930;9.526;2022-08-18T04:47:45;18.50;99.90
18805;DHT22;9530;48.930;9.526;2022-08-18T04:50:13;18.50;99.90
18805;DHT22;9530;48.930;9.526;2022-08-18T04:52:41;18.50;99.90
18805;DHT22;9530;48.930;9.526;2022-08-18T04:55:25;18.50;99.90
18805;DHT22;9530;48.930;9.526;2022-08-18T04:57:53;18.60;99.90
18805;DHT22;9530;48.930;9.526;2022-08-18T05:00:20;18.70;99.90
18805;DHT22;9530;48.930;9.526;2022-08-18T05:02:47;18.70;99.90
18805;DHT22;9530;48.930;9.526;2022-08-18T05:05:15;18.70;99.90
18805;DHT22;9530;48.930;9.526;2022-08-18T05:07:43;18.80;99.90
18805;DHT22;9530;48.930;9.526;2022-08-18T05:10:11;18.80;99.90
18805;DHT22;9530;48.930;9.526;2022-08-18T05:12:38;18.80;99.90
18805;DHT22;9530;48.930;9.526;2022-08-18T05:15:07;19.00;99.90
18805;DHT22;9530;48.930;9.526;2022-08-18T05:17:35;19.00;99.90
18805;DHT22;9530;48.930;9.526;2022-08-18T05:20:05;19.10;99.90
18805;DHT22;9530;48.930;9.526;2022-08-18T05:22:37;19.20;99.90
18805;DHT22;9530;48.930;9.526;2022-08-18T05:25:06;19.20;99.90
18805;DHT22;9530;48.930;9.526;2022-08-18T05:27:33;19.20;99.90
18805;DHT22;9530;48.930;9.526;2022-08-18T05:30:00;19.20;99.90
18805;DHT22;9530;48.930;9.526;2022-08-18T05:32:27;19.20;99.90
18805;DHT22;9530;48.930;9.526;2022-08-18T05:34:56;19.20;99.90
18805;DHT22;9530;48.930;9.526;2022-08-18T05:37:28;19.20;99.90
18805;DHT22;9530;48.930;9.526;2022-08-18T05:40:01;19.20;99.90
18805;DHT22;9530;48.930;9.526;2022-08-18T05:42:32;19.20;99.90
18805;DHT22;9530;48.930;9.526;2022-08-18T05:45:02;19.20;99.90
18805;DHT22;9530;48.930;9.526;2022-08-18T05:47:33;19.20;99.90
18805;DHT22;9530;48.930;9.526;2022-08-18T05:50:03;19.30;99.90
18805;DHT22;9530;48.930;9.526;2022-08-18T05:52:36;19.30;99.90
18805;DHT22;9530;48.930;9.526;2022-08-18T05:55:09;19.30;99.90
18805;DHT22;9530;48.930;9.526;2022-08-18T05:57:58;19.30;99.90
18805;DHT22;9530;48.930;9.526;2022-08-18T06:00:27;19.50;99.90
18805;DHT22;9530;48.930;9.526;2022-08-18T06:02:59;19.50;99.90
18805;DHT22;9530;48.930;9.526;2022-08-18T06:05:31;19.60;99.90
18805;DHT22;9530;48.930;9.526;2022-08-18T06:08:03;19.70;99.90
18805;DHT22;9530;48.930;9.526;2022-08-18T06:10:33;19.70;99.90
18805;DHT22;9530;48.930;9.526;2022-08-18T06:13:00;19.90;99.90
18805;DHT22;9530;48.930;9.526;2022-08-18T06:15:35;19.90;99.90
18805;DHT22;9530;48.930;9.526;2022-08-18T06:18:23;20.00;99.90
18805;DHT22;9530;48.930;9.526;2022-08-18T06:24:02;20.30;99.90
18805;DHT22;9530;48.930;9.526;2022-08-18T06:26:38;20.40;99.90
18805;DHT22;9530;48.930;9.526;2022-08-18T06:29:24;20.40;99.90
18805;DHT22;9530;48.930;9.526;2022-08-18T06:32:00;20.40;99.90
18805;DHT22;9530;48.930;9.526;2022-08-18T06:34:36;20.40;99.90
18805;DHT22;9530;48.930;9.526;2022-08-18T06:37:11;20.40;99.90
18805;DHT22;9530;48.930;9.526;2022-08-18T06:39:45;20.50;99.90
18805;DHT22;9530;48.930;9.526;2022-08-18T06:42:15;20.40;99.90
18805;DHT22;9530;48.930;9.526;2022-08-18T06:44:45;20.40;99.90
18805;DHT22;9530;48.930;9.526;2022-08-18T06:47:23;20.50;99.90
18805;DHT22;9530;48.930;9.526;2022-08-18T06:50:00;20.50;99.90
18805;DHT22;9530;48.930;9.526;2022-08-18T06:52:31;20.60;99.90
18805;DHT22;9530;48.930;9.526;2022-08-18T06:55:00;20.70;99.90
18805;DHT22;9530;48.930;9.526;2022-08-18T06:57:31;20.90;99.90
18805;DHT22;9530;48.930;9.526;2022-08-18T07:00:03;20.90;99.90
18805;DHT22;9530;48.930;9.526;2022-08-18T07:02:48;20.80;99.90
18805;DHT22;9530;48.930;9.526;2022-08-18T07:05:20;20.80;99.90
18805;DHT22;9530;48.930;9.526;2022-08-18T07:08:05;20.90;99.90
18805;DHT22;9530;48.930;9.526;2022-08-18T07:10:34;20.90;99.90
18805;DHT22;9530;48.930;9.526;2022-08-18T07:13:12;21.00;99.90
18805;DHT22;9530;48.930;9.526;2022-08-18T07:15:40;21.00;99.90
18805;DHT22;9530;48.930;9.526;2022-08-18T07:18:09;21.00;99.90
18805;DHT22;9530;48.930;9.526;2022-08-18T07:20:41;21.00;99.90
18805;DHT22;9530;48.930;9.526;2022-08-18T07:23:20;21.20;99.90
18805;DHT22;9530;48.930;9.526;2022-08-18T07:25:51;21.20;99.90
18805;DHT22;9530;48.930;9.526;2022-08-18T07:28:29;21.30;99.90
18805;DHT22;9530;48.930;9.526;2022-08-18T07:31:18;21.40;99.90
18805;DHT22;9530;48.930;9.526;2022-08-18T07:33:50;21.40;99.90
18805;DHT22;9530;48.930;9.526;2022-08-18T07:36:19;21.30;99.90
18805;DHT22;9530;48.930;9.526;2022-08-18T07:38:51;21.60;99.90
18805;DHT22;9530;48.930;9.526;2022-08-18T07:41:22;21.80;99.90
18805;DHT22;9530;48.930;9.526;2022-08-18T07:44:02;21.90;99.90
18805;DHT22;9530;48.930;9.526;2022-08-18T07:46:34;22.20;99.90
18805;DHT22;9530;48.930;9.526;2022-08-18T07:49:02;22.30;99.90
18805;DHT22;9530;48.930;9.526;2022-08-18T07:51:40;22.30;99.90
18805;DHT22;9530;48.930;9.526;2022-08-18T07:54:17;22.20;99.90
18805;DHT22;9530;48.930;9.526;2022-08-18T07:56:50;22.40;99.90
18805;DHT22;9530;48.930;9.526;2022-08-18T07:59:25;22.60;99.90
18805;DHT22;9530;48.930;9.526;2022-08-18T08:02:06;22.50;99.90
18805;DHT22;9530;48.930;9.526;2022-08-18T08:04:43;22.50;99.90
18805;DHT22;9530;48.930;9.526;2022-08-18T08:07:14;22.30;99.90
18805;DHT22;9530;48.930;9.526;2022-08-18T08:09:50;22.30;99.90
18805;DHT22;9530;48.930;9.526;2022-08-18T08:12:26;22.00;99.90
18805;DHT22;9530;48.930;9.526;2022-08-18T08:15:05;21.70;99.90
18805;DHT22;9530;48.930;9.526;2022-08-18T08:17:43;21.70;99.90
18805;DHT22;9530;48.930;9.526;2022-08-18T08:20:21;21.60;99.90
18805;DHT22;9530;48.930;9.526;2022-08-18T08:23:04;21.40;99.90
18805;DHT22;9530;48.930;9.526;2022-08-18T08:25:41;21.30;99.90
18805;DHT22;9530;48.930;9.526;2022-08-18T08:28:16;21.20;99.90
18805;DHT22;9530;48.930;9.526;2022-08-18T08:30:52;21.10;99.90
18805;DHT22;9530;48.930;9.526;2022-08-18T08:33:25;20.90;99.90
18805;DHT22;9530;48.930;9.526;2022-08-18T08:35:57;21.00;99.90
18805;DHT22;9530;48.930;9.526;2022-08-18T08:38:38;21.00;99.90
18805;DHT22;9530;48.930;9.526;2022-08-18T08:41:10;21.00;99.90
18805;DHT22;9530;48.930;9.526;2022-08-18T08:43:41;20.90;99.90
18805;DHT22;9530;48.930;9.526;2022-08-18T08:46:14;20.90;99.90
18805;DHT22;9530;48.930;9.526;2022-08-18T08:48:47;20.80;99.90
18805;DHT22;9530;48.930;9.526;2022-08-18T08:51:28;20.80;99.90
18805;DHT22;9530;48.930;9.526;2022-08-18T08:54:00;20.70;99.90
18805;DHT22;9530;48.930;9.526;2022-08-18T08:56:32;20.50;99.90
18805;DHT22;9530;48.930;9.526;2022-08-18T08:59:03;20.70;99.90
18805;DHT22;9530;48.930;9.526;2022-08-18T09:01:35;20.70;99.90
18805;DHT22;9530;48.930;9.526;2022-08-18T09:04:22;20.60;99.90
18805;DHT22;9530;48.930;9.526;2022-08-18T09:06:54;20.70;99.90
18805;DHT22;9530;48.930;9.526;2022-08-18T09:09:43;20.70;99.90
18805;DHT22;9530;48.930;9.526;2022-08-18T09:12:33;21.00;99.90
18805;DHT22;9530;48.930;9.526;2022-08-18T09:15:16;20.80;99.90
18805;DHT22;9530;48.930;9.526;2022-08-18T09:18:02;21.10;99.90
18805;DHT22;9530;48.930;9.526;2022-08-18T09:20:49;21.10;99.90
18805;DHT22;9530;48.930;9.526;2022-08-18T09:23:18;21.20;99.90
18805;DHT22;9530;48.930;9.526;2022-08-18T09:25:48;21.70;99.90
18805;DHT22;9530;48.930;9.526;2022-08-18T09:28:18;22.20;99.90
18805;DHT22;9530;48.930;9.526;2022-08-18T09:30:52;22.30;99.90
18805;DHT22;9530;48.930;9.526;2022-08-18T09:33:26;22.40;99.90
18805;DHT22;9530;48.930;9.526;2022-08-18T09:36:14;22.70;99.90
18805;DHT22;9530;48.930;9.526;2022-08-18T09:38:50;22.80;99.90
18805;DHT22;9530;48.930;9.526;2022-08-18T09:41:35;22.90;99.90
18805;DHT22;9530;48.930;9.526;2022-08-18T09:44:04;23.20;99.90
18805;DHT22;9530;48.930;9.526;2022-08-18T09:46:53;23.40;99.90
18805;DHT22;9530;48.930;9.526;2022-08-18T09:49:45;23.50;99.90
18805;DHT22;9530;48.930;9.526;2022-08-18T09:55:51;23.20;99.90
18805;DHT22;9530;48.930;9.526;2022-08-18T10:01:37;24.20;99.90
18805;DHT22;9530;48.930;9.526;2022-08-18T10:04:25;24.40;99.90
18805;DHT22;9530;48.930;9.526;2022-08-18T10:06:54;24.10;99.90
18805;DHT22;9530;48.930;9.526;2022-08-18T10:09:52;24.40;99.90
18805;DHT22;9530;48.930;9.526;2022-08-18T10:12:32;24.60;99.90
18805;DHT22;9530;48.930;9.526;2022-08-18T10:15:23;24.60;99.90
18805;DHT22;9530;48.930;9.526;2022-08-18T10:18:13;24.70;99.90
18805;DHT22;9530;48.930;9.526;2022-08-18T10:20:54;24.70;99.90
18805;DHT22;9530;48.930;9.526;2022-08-18T10:23:44;24.80;99.90
18805;DHT22;9530;48.930;9.526;2022-08-18T10:41:27;24.50;99.90
18805;DHT22;9530;48.930;9.526;2022-08-18T10:43:55;25.10;99.90
18805;DHT22;9530;48.930;9.526;2022-08-18T10:46:26;25.50;99.90
18805;DHT22;9530;48.930;9.526;2022-08-18T10:49:05;25.80;99.90
18805;DHT22;9530;48.930;9.526;2022-08-18T10:51:58;25.70;99.90
18805;DHT22;9530;48.930;9.526;2022-08-18T10:54:37;25.70;99.90
18805;DHT22;9530;48.930;9.526;2022-08-18T10:57:26;25.80;99.90
18805;DHT22;9530;48.930;9.526;2022-08-18T11:00:03;26.00;99.90
18805;DHT22;9530;48.930;9.526;2022-08-18T11:02:47;26.10;99.90
18805;DHT22;9530;48.930;9.526;2022-08-18T11:05:24;25.90;99.90
18805;DHT22;9530;48.930;9.526;2022-08-18T11:07:55;25.90;99.90
18805;DHT22;9530;48.930;9.526;2022-08-18T11:10:35;25.80;99.90
18805;DHT22;9530;48.930;9.526;2022-08-18T11:13:12;25.00;99.90
18805;DHT22;9530;48.930;9.526;2022-08-18T11:15:50;25.30;99.90
18805;DHT22;9530;48.930;9.526;2022-08-18T11:18:31;25.70;99.90
18805;DHT22;9530;48.930;9.526;2022-08-18T11:21:30;25.90;99.90
18805;DHT22;9530;48.930;9.526;2022-08-18T11:24:10;26.00;99.90
18805;DHT22;9530;48.930;9.526;2022-08-18T11:26:39;26.60;99.90
18805;DHT22;9530;48.930;9.526;2022-08-18T11:29:29;26.80;99.90
18805;DHT22;9530;48.930;9.526;2022-08-18T11:32:02;26.80;99.90
18805;DHT22;9530;48.930;9.526;2022-08-18T11:34:35;26.80;99.90
18805;DHT22;9530;48.930;9.526;2022-08-18T11:37:05;26.70;99.90
18805;DHT22;9530;48.930;9.526;2022-08-18T11:39:40;26.80;99.90
18805;DHT22;9530;48.930;9.526;2022-08-18T11:42:07;27.10;99.90
18805;DHT22;9530;48.930;9.526;2022-08-18T11:44:37;27.60;99.90
18805;DHT22;9530;48.930;9.526;2022-08-18T11:47:13;27.50;99.90
18805;DHT22;9530;48.930;9.526;2022-08-18T11:49:52;27.20;99.90
18805;DHT22;9530;48.930;9.526;2022-08-18T11:52:23;27.30;99.90
18805;DHT22;9530;48.930;9.526;2022-08-18T11:54:50;27.30;99.90
18805;DHT22;9530;48.930;9.526;2022-08-18T11:57:39;27.30;99.90
18805;DHT22;9530;48.930;9.526;2022-08-18T12:03:24;27.50;99.90
18805;DHT22;9530;48.930;9.526;2022-08-18T12:05:54;27.60;99.90
18805;DHT22;9530;48.930;9.526;2022-08-18T12:08:27;27.60;99.90
18805;DHT22;9530;48.930;9.526;2022-08-18T12:11:03;27.60;99.90
18805;DHT22;9530;48.930;9.526;2022-08-18T12:13:31;27.30;99.90
18805;DHT22;9530;48.930;9.526;2022-08-18T12:16:09;27.50;99.90
18805;DHT22;9530;48.930;9.526;2022-08-18T12:18:38;27.80;99.90
18805;DHT22;9530;48.930;9.526;2022-08-18T12:21:05;27.90;99.90
18805;DHT22;9530;48.930;9.526;2022-08-18T12:23:32;27.70;99.90
18805;DHT22;9530;48.930;9.526;2022-08-18T12:25:59;27.40;99.90
18805;DHT22;9530;48.930;9.526;2022-08-18T12:28:26;27.20;99.90
18805;DHT22;9530;48.930;9.526;2022-08-18T12:30:53;27.20;99.90
18805;DHT22;9530;48.930;9.526;2022-08-18T12:33:19;27.20;99.90
18805;DHT22;9530;48.930;9.526;2022-08-18T12:35:47;27.50;99.90
18805;DHT22;9530;48.930;9.526;2022-08-18T12:38:14;27.70;99.90
18805;DHT22;9530;48.930;9.526;2022-08-18T12:40:42;27.50;99.90
18805;DHT22;9530;48.930;9.526;2022-08-18T12:43:10;27.60;99.90
18805;DHT22;9530;48.930;9.526;2022-08-18T12:45:37;27.70;99.90
18805;DHT22;9530;48.930;9.526;2022-08-18T12:48:04;27.50;99.90
18805;DHT22;9530;48.930;9.526;2022-08-18T12:50:31;27.60;99.90
18805;DHT22;9530;48.930;9.526;2022-08-18T12:52:59;27.70;99.90
18805;DHT22;9530;48.930;9.526;2022-08-18T12:55:27;27.60;99.90
18805;DHT22;9530;48.930;9.526;2022-08-18T12:57:53;27.60;99.90
18805;DHT22;9530;48.930;9.526;2022-08-18T13:00:20;27.40;99.90
18805;DHT22;9530;48.930;9.526;2022-08-18T13:02:47;27.30;99.90
18805;DHT22;9530;48.930;9.526;2022-08-18T13:05:14;27.60;99.90
18805;DHT22;9530;48.930;9.526;2022-08-18T13:07:40;27.50;99.90
18805;DHT22;9530;48.930;9.526;2022-08-18T13:10:09;27.50;99.90
18805;DHT22;9530;48.930;9.526;2022-08-18T13:12:36;27.70;99.90
18805;DHT22;9530;48.930;9.526;2022-08-18T13:15:03;28.00;99.90
18805;DHT22;9530;48.930;9.526;2022-08-18T13:17:34;28.00;99.90
18805;DHT22;9530;48.930;9.526;2022-08-18T13:20:04;28.10;99.90
18805;DHT22;9530;48.930;9.526;2022-08-18T13:22:32;27.50;99.90
18805;DHT22;9530;48.930;9.526;2022-08-18T13:24:59;27.40;99.90
18805;DHT22;9530;48.930;9.526;2022-08-18T13:27:27;27.50;99.90
18805;DHT22;9530;48.930;9.526;2022-08-18T13:29:54;27.90;99.90
18805;DHT22;9530;48.930;9.526;2022-08-18T13:32:21;28.40;99.90
18805;DHT22;9530;48.930;9.526;2022-08-18T13:34:48;28.80;99.90
18805;DHT22;9530;48.930;9.526;2022-08-18T13:37:15;28.50;99.90
18805;DHT22;9530;48.930;9.526;2022-08-18T13:39:41;28.40;99.90
18805;DHT22;9530;48.930;9.526;2022-08-18T13:42:08;28.30;99.90
18805;DHT22;9530;48.930;9.526;2022-08-18T13:44:36;28.30;99.90
18805;DHT22;9530;48.930;9.526;2022-08-18T13:47:06;28.00;99.90
18805;DHT22;9530;48.930;9.526;2022-08-18T13:49:32;28.00;99.90
18805;DHT22;9530;48.930;9.526;2022-08-18T13:51:59;28.00;99.90
18805;DHT22;9530;48.930;9.526;2022-08-18T13:54:28;27.80;99.90
18805;DHT22;9530;48.930;9.526;2022-08-18T13:56:57;27.70;99.90
18805;DHT22;9530;48.930;9.526;2022-08-18T13:59:24;28.00;99.90
18805;DHT22;9530;48.930;9.526;2022-08-18T14:01:58;27.90;99.90
18805;DHT22;9530;48.930;9.526;2022-08-18T14:04:26;27.90;99.90
18805;DHT22;9530;48.930;9.526;2022-08-18T14:06:54;28.10;99.90
18805;DHT22;9530;48.930;9.526;2022-08-18T14:09:21;28.20;99.90
18805;DHT22;9530;48.930;9.526;2022-08-18T14:11:47;28.20;99.90
18805;DHT22;9530;48.930;9.526;2022-08-18T14:14:14;28.40;99.90
18805;DHT22;9530;48.930;9.526;2022-08-18T14:16:41;28.70;99.90
18805;DHT22;9530;48.930;9.526;2022-08-18T14:19:09;28.90;99.90
18805;DHT22;9530;48.930;9.526;2022-08-18T14:21:54;29.20;99.90
18805;DHT22;9530;48.930;9.526;2022-08-18T14:24:39;29.50;99.90
18805;DHT22;9530;48.930;9.526;2022-08-18T14:27:26;29.50;99.90
18805;DHT22;9530;48.930;9.526;2022-08-18T14:29:55;29.50;99.90
18805;DHT22;9530;48.930;9.526;2022-08-18T14:32:22;29.50;99.90
18805;DHT22;9530;48.930;9.526;2022-08-18T14:34:52;29.50;99.90
18805;DHT22;9530;48.930;9.526;2022-08-18T14:37:19;29.70;99.90
18805;DHT22;9530;48.930;9.526;2022-08-18T14:39:46;29.80;99.90
18805;DHT22;9530;48.930;9.526;2022-08-18T14:42:14;29.70;99.90
18805;DHT22;9530;48.930;9.526;2022-08-18T14:44:42;29.50;99.90
18805;DHT22;9530;48.930;9.526;2022-08-18T14:47:10;29.30;99.90
18805;DHT22;9530;48.930;9.526;2022-08-18T14:49:36;29.50;99.90
18805;DHT22;9530;48.930;9.526;2022-08-18T14:52:06;28.90;99.90
18805;DHT22;9530;48.930;9.526;2022-08-18T14:54:33;29.00;99.90
18805;DHT22;9530;48.930;9.526;2022-08-18T14:57:01;28.90;99.90
18805;DHT22;9530;48.930;9.526;2022-08-18T14:59:28;28.80;99.90
18805;DHT22;9530;48.930;9.526;2022-08-18T15:01:55;28.80;99.90
18805;DHT22;9530;48.930;9.526;2022-08-18T15:04:22;28.60;99.90
18805;DHT22;9530;48.930;9.526;2022-08-18T15:06:49;28.50;99.90
18805;DHT22;9530;48.930;9.526;2022-08-18T15:09:17;28.30;99.90
18805;DHT22;9530;48.930;9.526;2022-08-18T15:11:44;27.80;99.90
18805;DHT22;9530;48.930;9.526;2022-08-18T15:14:11;27.60;99.90
18805;DHT22;9530;48.930;9.526;2022-08-18T15:16:38;27.70;99.90
18805;DHT22;9530;48.930;9.526;2022-08-18T15:19:05;27.50;99.90
18805;DHT22;9530;48.930;9.526;2022-08-18T15:21:31;27.40;99.90
18805;DHT22;9530;48.930;9.526;2022-08-18T15:24:17;27.30;99.90
18805;DHT22;9530;48.930;9.526;2022-08-18T15:27:04;27.30;99.90
18805;DHT22;9530;48.930;9.526;2022-08-18T15:29:31;27.50;99.90
18805;DHT22;9530;48.930;9.526;2022-08-18T15:31:58;27.40;99.90
18805;DHT22;9530;48.930;9.526;2022-08-18T15:34:25;27.10;99.90
18805;DHT22;9530;48.930;9.526;2022-08-18T15:36:53;27.10;99.90
18805;DHT22;9530;48.930;9.526;2022-08-18T15:39:21;27.40;99.90
18805;DHT22;9530;48.930;9.526;2022-08-18T15:41:48;27.40;99.90
18805;DHT22;9530;48.930;9.526;2022-08-18T15:44:16;27.40;99.90
18805;DHT22;9530;48.930;9.526;2022-08-18T15:46:44;27.40;99.90
18805;DHT22;9530;48.930;9.526;2022-08-18T15:49:13;27.50;99.90
18805;DHT22;9530;48.930;9.526;2022-08-18T15:51:40;27.40;99.90
18805;DHT22;9530;48.930;9.526;2022-08-18T15:54:08;27.00;99.90
18805;DHT22;9530;48.930;9.526;2022-08-18T15:56:37;27.10;99.90
18805;DHT22;9530;48.930;9.526;2022-08-18T15:59:04;27.30;99.90
18805;DHT22;9530;48.930;9.526;2022-08-18T16:01:34;27.00;99.90
18805;DHT22;9530;48.930;9.526;2022-08-18T16:04:02;27.10;99.90
18805;DHT22;9530;48.930;9.526;2022-08-18T16:06:29;27.10;99.90
18805;DHT22;9530;48.930;9.526;2022-08-18T16:08:56;26.80;99.90
18805;DHT22;9530;48.930;9.526;2022-08-18T16:11:23;27.00;99.90
18805;DHT22;9530;48.930;9.526;2022-08-18T16:13:51;27.20;99.90
18805;DHT22;9530;48.930;9.526;2022-08-18T16:16:20;27.20;99.90
18805;DHT22;9530;48.930;9.526;2022-08-18T16:18:48;27.30;99.90
18805;DHT22;9530;48.930;9.526;2022-08-18T16:21:21;27.30;99.90
18805;DHT22;9530;48.930;9.526;2022-08-18T16:23:50;27.20;99.90
18805;DHT22;9530;48.930;9.526;2022-08-18T16:26:18;27.20;99.90
18805;DHT22;9530;48.930;9.526;2022-08-18T16:28:48;27.10;99.90
18805;DHT22;9530;48.930;9.526;2022-08-18T16:31:19;26.90;99.90
18805;DHT22;9530;48.930;9.526;2022-08-18T16:33:49;26.80;99.90
18805;DHT22;9530;48.930;9.526;2022-08-18T16:36:18;26.60;99.90
18805;DHT22;9530;48.930;9.526;2022-08-18T16:38:44;26.60;99.90